Time;durP1;ratioP1;P1;durP2;ratioP2;P2;SDS_P1;SDS_P2;PMS_P1;PMS_P2;Temp;Humidity;BMP_temperature;BMP_pressure;BME280_temperature;BME280_humidity;BME280_pressure;Samples;Min_cycle;Max_cycle;Signal;HPM_P1;HPM_P2
2023/12/22 00:00:11;;;;;;;19.20;4.28;;;6.40;99.90;;;;;;7371253;19;20037;-68
2023/12/22 00:02:37;;;;;;;21.20;5.38;;;6.40;99.90;;;;;;7375235;19;20018;-67
2023/12/22 00:05:04;;;;;;;19.90;3.97;;;6.40;99.90;;;;;;7373568;19;20383;-75
2023/12/22 00:07:30;;;;;;;19.85;4.10;;;6.30;99.90;;;;;;7378020;19;20022;-68
2023/12/22 00:09:57;;;;;;;21.02;4.55;;;6.20;99.90;;;;;;7368944;19;20382;-68
2023/12/22 00:12:26;;;;;;;20.58;4.20;;;6.20;99.90;;;;;;7376224;19;20018;-70
2023/12/22 00:14:52;;;;;;;23.10;4.50;;;6.30;99.90;;;;;;7371412;19;20018;-70
2023/12/22 00:17:38;;;;;;;20.73;4.80;;;6.30;99.90;;;;;;7373473;19;20026;-68
2023/12/22 00:20:05;;;;;;;24.75;5.38;;;6.30;99.90;;;;;;7371326;19;20022;-67
2023/12/22 00:22:37;;;;;;;22.00;5.00;;;6.30;99.90;;;;;;7369646;19;20493;-67
2023/12/22 00:25:07;;;;;;;22.70;4.85;;;6.40;99.90;;;;;;7372332;19;20044;-67
2023/12/22 00:27:34;;;;;;;23.20;5.55;;;6.30;99.90;;;;;;7370148;19;20500;-68
2023/12/22 00:30:00;;;;;;;26.95;5.13;;;6.20;99.90;;;;;;7371877;19;20034;-67
2023/12/22 00:32:26;;;;;;;24.83;5.30;;;6.20;99.90;;;;;;7371065;19;20026;-68
2023/12/22 00:34:52;;;;;;;24.13;5.88;;;6.20;99.90;;;;;;7370823;19;20040;-67
2023/12/22 00:37:18;;;;;;;29.35;6.15;;;6.20;99.90;;;;;;7370443;19;20019;-67
2023/12/22 00:39:45;;;;;;;18.88;4.20;;;6.30;99.90;;;;;;7372795;19;20037;-67
2023/12/22 00:42:11;;;;;;;19.02;5.05;;;6.30;99.90;;;;;;7371000;19;20863;-67
2023/12/22 00:44:39;;;;;;;20.00;4.05;;;6.50;99.90;;;;;;7372700;19;20052;-68
2023/12/22 00:47:07;;;;;;;15.70;3.80;;;6.40;99.90;;;;;;7370015;19;20018;-68
2023/12/22 00:49:34;;;;;;;19.25;4.40;;;6.50;99.90;;;;;;7372283;19;20521;-68
2023/12/22 00:52:00;;;;;;;20.17;3.63;;;6.40;99.90;;;;;;7366657;19;20023;-68
2023/12/22 00:54:26;;;;;;;27.30;4.88;;;6.40;99.90;;;;;;7370625;19;20022;-67
2023/12/22 00:56:53;;;;;;;18.42;3.35;;;6.40;99.90;;;;;;7370288;19;20018;-67
2023/12/22 00:59:20;;;;;;;22.02;3.58;;;6.30;99.90;;;;;;7381293;19;20098;-75
2023/12/22 01:01:47;;;;;;;18.95;3.63;;;6.40;99.90;;;;;;7375279;19;20043;-67
2023/12/22 01:04:13;;;;;;;21.05;5.28;;;6.40;99.90;;;;;;7370993;19;20046;-68
2023/12/22 01:06:39;;;;;;;26.35;3.80;;;6.40;99.90;;;;;;7370095;19;20034;-68
2023/12/22 01:09:06;;;;;;;19.80;3.85;;;6.50;99.90;;;;;;7369945;19;20030;-67
2023/12/22 01:11:32;;;;;;;20.45;4.47;;;6.50;99.90;;;;;;7369253;19;20022;-68
2023/12/22 01:13:58;;;;;;;19.25;4.50;;;6.50;99.90;;;;;;7371251;19;20026;-68
2023/12/22 01:16:24;;;;;;;20.65;4.25;;;6.50;99.90;;;;;;7370256;19;20022;-68
2023/12/22 01:18:51;;;;;;;18.95;3.63;;;6.50;99.90;;;;;;7371370;19;20018;-68
2023/12/22 01:21:17;;;;;;;22.20;4.40;;;6.50;99.90;;;;;;7365996;19;20038;-68
2023/12/22 01:23:44;;;;;;;21.10;3.88;;;6.40;99.90;;;;;;7367768;19;20023;-68
2023/12/22 01:26:10;;;;;;;22.70;4.75;;;6.40;99.90;;;;;;7370740;19;20086;-68
2023/12/22 01:28:36;;;;;;;24.92;4.80;;;6.40;99.90;;;;;;7372699;19;20474;-68
2023/12/22 01:31:03;;;;;;;22.25;4.32;;;6.30;99.90;;;;;;7372930;19;20493;-75
2023/12/22 01:33:29;;;;;;;21.92;4.07;;;6.40;99.90;;;;;;7383196;19;20022;-75
2023/12/22 01:35:55;;;;;;;16.25;4.07;;;6.50;99.90;;;;;;7386327;19;20030;-73
2023/12/22 01:38:22;;;;;;;24.45;4.10;;;6.60;99.90;;;;;;7385438;19;20026;-73
2023/12/22 01:40:48;;;;;;;19.98;4.53;;;6.50;99.90;;;;;;7385393;19;20044;-74
2023/12/22 01:43:16;;;;;;;20.30;4.35;;;6.40;99.90;;;;;;7382068;19;20007;-74
2023/12/22 01:45:44;;;;;;;17.00;4.18;;;6.50;99.90;;;;;;7385595;19;20019;-74
2023/12/22 01:48:11;;;;;;;17.30;3.67;;;6.40;99.90;;;;;;7377898;19;20022;-68
2023/12/22 01:50:39;;;;;;;22.23;4.20;;;6.40;99.90;;;;;;7369475;19;20026;-68
2023/12/22 01:53:05;;;;;;;16.55;3.90;;;6.30;99.90;;;;;;7366155;19;20019;-68
2023/12/22 01:55:31;;;;;;;18.60;3.75;;;6.30;99.90;;;;;;7370013;19;20010;-68
2023/12/22 01:57:59;;;;;;;14.73;3.60;;;6.40;99.90;;;;;;7372615;19;20053;-68
2023/12/22 02:00:25;;;;;;;20.48;4.55;;;6.40;99.90;;;;;;7374318;19;20019;-68
2023/12/22 02:02:52;;;;;;;11.18;2.72;;;6.50;99.90;;;;;;7374527;19;20078;-68
2023/12/22 02:05:43;;;;;;;14.18;3.00;;;6.40;99.90;;;;;;7392144;19;20781;-75
2023/12/22 02:08:12;;;;;;;19.33;3.53;;;6.40;99.90;;;;;;7389917;19;20018;-75
2023/12/22 02:10:39;;;;;;;21.63;3.88;;;6.40;99.90;;;;;;7391817;19;20034;-75
2023/12/22 02:13:05;;;;;;;18.20;3.50;;;6.30;99.90;;;;;;7387679;19;20019;-74
2023/12/22 02:15:32;;;;;;;22.02;3.75;;;6.20;99.90;;;;;;7389692;19;20046;-75
2023/12/22 02:18:16;;;;;;;20.13;4.40;;;6.30;99.90;;;;;;7389404;19;20580;-75
2023/12/22 02:20:44;;;;;;;17.45;3.70;;;6.20;99.90;;;;;;7386404;19;20017;-75
2023/12/22 02:23:11;;;;;;;24.63;4.93;;;6.20;99.90;;;;;;7380577;19;20015;-75
2023/12/22 02:25:37;;;;;;;21.25;4.20;;;6.30;99.90;;;;;;7387350;19;20433;-75
2023/12/22 02:28:07;;;;;;;23.05;3.80;;;6.20;99.90;;;;;;7376599;19;20018;-75
2023/12/22 02:30:52;;;;;;;20.45;4.38;;;6.30;99.90;;;;;;7386121;19;20022;-75
2023/12/22 02:33:19;;;;;;;24.45;3.95;;;6.40;99.90;;;;;;7380392;19;20018;-76
2023/12/22 02:35:49;;;;;;;21.73;5.03;;;6.40;99.90;;;;;;7382707;19;20019;-75
2023/12/22 02:38:16;;;;;;;28.08;4.85;;;6.40;99.90;;;;;;7379341;19;20029;-69
2023/12/22 02:40:44;;;;;;;20.60;4.97;;;6.40;99.90;;;;;;7373838;19;20033;-68
2023/12/22 02:43:12;;;;;;;22.85;4.28;;;6.40;99.90;;;;;;7373916;19;20041;-67
2023/12/22 02:45:38;;;;;;;23.38;5.50;;;6.40;99.90;;;;;;7373605;19;20053;-68
2023/12/22 02:48:05;;;;;;;19.40;3.58;;;6.40;99.90;;;;;;7378583;19;20014;-75
2023/12/22 02:50:31;;;;;;;16.42;3.42;;;6.40;99.90;;;;;;7384176;19;20026;-76
2023/12/22 02:52:57;;;;;;;14.73;3.60;;;6.40;99.90;;;;;;7386009;19;20113;-76
2023/12/22 02:55:43;;;;;;;13.95;3.55;;;6.40;99.90;;;;;;7387318;19;20033;-75
2023/12/22 02:58:10;;;;;;;18.80;3.28;;;6.60;99.90;;;;;;7382245;19;20022;-75
2023/12/22 03:00:40;;;;;;;10.85;2.47;;;6.60;99.90;;;;;;7383853;19;20015;-75
2023/12/22 03:03:08;;;;;;;14.38;2.60;;;6.70;99.90;;;;;;7379882;19;20466;-76
2023/12/22 03:05:34;;;;;;;10.63;2.40;;;6.70;99.90;;;;;;7386996;19;20022;-75
2023/12/22 03:08:00;;;;;;;11.68;2.90;;;6.70;99.90;;;;;;7386515;19;20042;-75
2023/12/22 03:10:29;;;;;;;13.77;2.75;;;6.60;99.90;;;;;;7386000;19;20092;-75
2023/12/22 03:12:56;;;;;;;8.50;1.85;;;6.50;99.90;;;;;;7385903;19;20482;-75
2023/12/22 03:15:22;;;;;;;14.25;2.20;;;6.50;99.90;;;;;;7384945;19;20030;-75
2023/12/22 03:17:48;;;;;;;18.38;3.42;;;6.40;99.90;;;;;;7384031;19;20122;-75
2023/12/22 03:20:14;;;;;;;10.57;2.67;;;6.50;99.90;;;;;;7384630;19;20024;-75
2023/12/22 03:22:41;;;;;;;10.65;2.00;;;6.40;99.90;;;;;;7384240;19;20036;-75
2023/12/22 03:25:07;;;;;;;12.55;3.08;;;6.30;99.90;;;;;;7385842;19;20054;-76
2023/12/22 03:27:34;;;;;;;9.52;2.20;;;6.20;99.90;;;;;;7385102;19;20031;-75
2023/12/22 03:30:01;;;;;;;12.63;2.33;;;6.20;99.90;;;;;;7385009;19;20074;-75
2023/12/22 03:32:28;;;;;;;12.27;2.35;;;6.20;99.90;;;;;;7388369;19;20018;-75
2023/12/22 03:34:54;;;;;;;13.88;2.72;;;6.20;99.90;;;;;;7386552;19;20019;-75
2023/12/22 03:37:21;;;;;;;13.65;2.38;;;6.10;99.90;;;;;;7381999;19;20051;-75
2023/12/22 03:39:47;;;;;;;9.30;2.30;;;6.00;99.90;;;;;;7382840;19;20472;-75
2023/12/22 03:42:14;;;;;;;11.40;2.47;;;6.00;99.90;;;;;;7374161;19;20688;-75
2023/12/22 03:44:40;;;;;;;16.67;3.17;;;5.90;99.90;;;;;;7382250;19;20019;-75
2023/12/22 03:47:07;;;;;;;12.70;2.13;;;5.90;99.90;;;;;;7380766;19;20019;-75
2023/12/22 03:49:33;;;;;;;12.50;2.15;;;5.90;99.90;;;;;;7383972;19;20014;-75
2023/12/22 03:52:03;;;;;;;12.32;2.58;;;5.90;99.90;;;;;;7380872;19;20482;-74
2023/12/22 03:54:29;;;;;;;13.02;2.58;;;5.90;99.90;;;;;;7384331;19;20018;-75
2023/12/22 03:56:55;;;;;;;14.38;2.60;;;5.80;99.90;;;;;;7379934;19;20026;-75
2023/12/22 03:59:22;;;;;;;17.50;2.92;;;5.80;99.90;;;;;;7379625;19;20629;-74
2023/12/22 04:01:52;;;;;;;14.25;3.00;;;5.80;99.90;;;;;;7380087;19;20052;-74
2023/12/22 04:04:19;;;;;;;12.75;2.63;;;5.80;99.90;;;;;;7379097;19;20806;-68
2023/12/22 04:06:45;;;;;;;16.50;3.35;;;5.80;99.90;;;;;;7371519;19;20504;-68
2023/12/22 04:09:12;;;;;;;19.70;3.33;;;5.90;99.90;;;;;;7367771;19;20022;-68
2023/12/22 04:11:59;;;;;;;21.30;3.58;;;5.80;99.90;;;;;;7370776;19;20022;-68
2023/12/22 04:14:25;;;;;;;19.33;3.58;;;5.90;99.90;;;;;;7368493;19;20022;-68
2023/12/22 04:16:52;;;;;;;13.70;3.78;;;6.00;99.90;;;;;;7366020;19;20022;-68
2023/12/22 04:19:19;;;;;;;19.70;3.70;;;6.10;99.90;;;;;;7374620;19;20018;-74
2023/12/22 04:21:45;;;;;;;17.58;3.67;;;6.10;99.90;;;;;;7375605;19;20018;-74
2023/12/22 04:24:12;;;;;;;14.95;3.45;;;6.20;99.90;;;;;;7376125;19;20018;-74
2023/12/22 04:26:38;;;;;;;17.60;3.65;;;6.20;99.90;;;;;;7366744;19;20074;-67
2023/12/22 04:29:04;;;;;;;20.02;4.28;;;6.20;99.90;;;;;;7363040;19;20022;-68
2023/12/22 04:31:30;;;;;;;15.85;3.90;;;6.20;99.90;;;;;;7373441;19;20039;-75
2023/12/22 04:33:56;;;;;;;19.83;4.93;;;6.30;99.90;;;;;;7372871;19;20022;-73
2023/12/22 04:36:22;;;;;;;19.10;3.25;;;6.40;99.90;;;;;;7377755;19;20014;-74
2023/12/22 04:38:49;;;;;;;19.98;3.67;;;6.20;99.90;;;;;;7364023;19;20876;-67
2023/12/22 04:41:15;;;;;;;17.75;3.92;;;6.30;99.90;;;;;;7367433;19;20128;-67
2023/12/22 04:43:44;;;;;;;15.43;3.15;;;6.20;99.90;;;;;;7375950;19;20053;-73
2023/12/22 04:46:10;;;;;;;18.35;3.53;;;6.20;99.90;;;;;;7377719;19;20018;-74
2023/12/22 04:48:36;;;;;;;17.23;3.38;;;6.40;99.90;;;;;;7375936;19;20057;-68
2023/12/22 04:51:03;;;;;;;13.98;3.60;;;6.30;99.90;;;;;;7365296;19;20565;-68
2023/12/22 04:53:29;;;;;;;16.45;3.58;;;6.40;99.90;;;;;;7366507;19;20022;-68
2023/12/22 04:55:55;;;;;;;19.58;4.38;;;6.50;99.90;;;;;;7368505;19;20058;-67
2023/12/22 04:58:22;;;;;;;21.35;4.05;;;6.70;99.90;;;;;;7364156;19;20986;-67
2023/12/22 05:00:49;;;;;;;17.67;3.85;;;6.70;99.90;;;;;;7362471;19;20063;-67
2023/12/22 05:03:15;;;;;;;23.23;5.05;;;6.70;99.90;;;;;;7362356;19;20018;-68
2023/12/22 05:06:01;;;;;;;25.67;4.57;;;6.80;99.90;;;;;;7364269;19;20037;-67
2023/12/22 05:08:30;;;;;;;17.13;3.90;;;6.70;99.90;;;;;;7366111;19;20023;-68
2023/12/22 05:10:56;;;;;;;23.98;5.00;;;6.80;99.90;;;;;;7366843;19;20394;-67
2023/12/22 05:13:44;;;;;;;23.08;4.30;;;6.90;99.90;;;;;;7369750;19;20026;-74
2023/12/22 05:16:11;;;;;;;22.27;3.45;;;6.90;99.90;;;;;;7378173;19;20793;-75
2023/12/22 05:18:37;;;;;;;16.70;3.55;;;6.80;99.90;;;;;;7378060;19;20022;-74
2023/12/22 05:21:03;;;;;;;16.08;3.65;;;6.80;99.90;;;;;;7377725;19;20085;-74
2023/12/22 05:23:30;;;;;;;20.65;4.65;;;6.80;99.90;;;;;;7379487;19;20014;-67
2023/12/22 05:25:56;;;;;;;19.17;4.40;;;6.80;99.90;;;;;;7367795;19;20097;-67
2023/12/22 05:28:22;;;;;;;20.73;4.00;;;6.90;99.90;;;;;;7374350;19;20019;-74
2023/12/22 05:30:48;;;;;;;15.80;3.50;;;6.90;99.90;;;;;;7375616;19;20018;-74
2023/12/22 05:33:14;;;;;;;17.40;3.92;;;6.90;99.90;;;;;;7381919;19;20566;-75
2023/12/22 05:35:42;;;;;;;22.02;4.32;;;7.00;99.90;;;;;;7386512;19;20078;-75
2023/12/22 05:38:08;;;;;;;22.05;3.45;;;7.00;99.90;;;;;;7377788;19;20070;-76
2023/12/22 05:40:34;;;;;;;19.27;3.20;;;6.90;99.90;;;;;;7375225;19;20018;-68
2023/12/22 05:43:01;;;;;;;20.13;4.53;;;6.90;99.90;;;;;;7368461;19;20076;-68
2023/12/22 05:45:27;;;;;;;16.45;3.72;;;7.00;99.90;;;;;;7373899;19;20058;-67
2023/12/22 05:47:53;;;;;;;13.50;3.67;;;7.00;99.90;;;;;;7369530;19;20011;-68
2023/12/22 05:50:19;;;;;;;29.15;5.15;;;7.00;99.90;;;;;;7371451;19;20674;-68
2023/12/22 05:52:46;;;;;;;18.70;3.65;;;7.00;99.90;;;;;;7371804;19;20360;-69
2023/12/22 05:55:12;;;;;;;16.52;3.72;;;7.00;99.90;;;;;;7373457;19;20047;-69
2023/12/22 05:57:38;;;;;;;16.02;3.50;;;6.90;99.90;;;;;;7368216;19;20126;-70
2023/12/22 06:00:07;;;;;;;18.52;3.63;;;6.90;99.90;;;;;;7367283;19;20046;-68
2023/12/22 06:02:34;;;;;;;16.15;3.85;;;7.00;99.90;;;;;;7371928;19;20011;-77
2023/12/22 06:05:01;;;;;;;17.60;4.00;;;6.90;99.90;;;;;;7379480;19;20085;-75
2023/12/22 06:07:27;;;;;;;22.88;3.85;;;6.90;99.90;;;;;;7374643;19;20015;-68
2023/12/22 06:09:53;;;;;;;21.27;3.35;;;6.90;99.90;;;;;;7367504;19;20745;-76
2023/12/22 06:12:40;;;;;;;19.08;4.10;;;6.90;99.90;;;;;;7372880;19;20014;-68
2023/12/22 06:15:06;;;;;;;17.30;3.70;;;6.90;99.90;;;;;;7362265;19;20470;-69
2023/12/22 06:17:33;;;;;;;18.05;3.85;;;7.00;99.90;;;;;;7376556;19;20031;-75
2023/12/22 06:19:59;;;;;;;15.07;3.90;;;7.00;99.90;;;;;;7377678;19;20752;-77
2023/12/22 06:22:47;;;;;;;16.10;3.40;;;7.00;99.90;;;;;;7379660;19;20018;-77
2023/12/22 06:25:13;;;;;;;15.82;3.58;;;7.00;99.90;;;;;;7378396;19;20085;-76
2023/12/22 06:27:40;;;;;;;20.98;3.72;;;7.00;99.90;;;;;;7376835;19;20121;-69
2023/12/22 06:30:07;;;;;;;19.08;3.30;;;7.00;99.90;;;;;;7367814;19;20017;-69
2023/12/22 06:32:33;;;;;;;14.27;3.33;;;7.00;99.90;;;;;;7372630;19;20481;-69
2023/12/22 06:35:00;;;;;;;14.25;3.08;;;7.00;99.90;;;;;;7365444;19;20022;-68
2023/12/22 06:37:26;;;;;;;14.15;3.55;;;7.00;99.90;;;;;;7368662;19;20025;-69
2023/12/22 06:39:53;;;;;;;17.02;2.95;;;7.00;99.90;;;;;;7366670;19;20018;-69
2023/12/22 06:42:19;;;;;;;10.93;2.88;;;7.00;99.90;;;;;;7366998;19;20029;-70
2023/12/22 06:44:45;;;;;;;12.23;3.13;;;7.00;99.90;;;;;;7369931;19;20081;-68
2023/12/22 06:47:12;;;;;;;16.90;3.67;;;7.00;99.90;;;;;;7369648;19;20090;-68
2023/12/22 06:49:38;;;;;;;12.68;3.17;;;7.00;99.90;;;;;;7377379;19;20033;-76
2023/12/22 06:52:05;;;;;;;20.33;4.72;;;7.00;99.90;;;;;;7377581;19;20022;-77
2023/12/22 06:54:31;;;;;;;16.70;3.28;;;7.00;99.90;;;;;;7378189;19;20026;-77
2023/12/22 06:56:57;;;;;;;22.63;4.05;;;7.00;99.90;;;;;;7382365;19;20363;-77
2023/12/22 06:59:23;;;;;;;19.50;3.42;;;7.00;99.90;;;;;;7379915;19;20018;-77
2023/12/22 07:01:49;;;;;;;17.08;3.25;;;7.00;99.90;;;;;;7382253;19;20019;-69
2023/12/22 07:04:16;;;;;;;13.73;3.53;;;7.00;99.90;;;;;;7362666;19;20022;-68
2023/12/22 07:06:44;;;;;;;25.63;3.65;;;7.00;99.90;;;;;;7374346;19;20662;-68
2023/12/22 07:09:19;;;;;;;20.58;3.67;;;7.10;99.90;;;;;;7363650;19;21885;-70
2023/12/22 07:11:55;;;;;;;13.63;3.70;;;7.10;99.90;;;;;;7370256;19;20054;-69
2023/12/22 07:14:22;;;;;;;19.00;4.05;;;7.10;99.90;;;;;;7364099;19;20105;-67
2023/12/22 07:16:48;;;;;;;15.43;3.45;;;7.10;99.90;;;;;;7368338;19;20010;-65
2023/12/22 07:19:14;;;;;;;17.77;3.38;;;7.10;99.90;;;;;;7372575;19;20023;-78
2023/12/22 07:21:44;;;;;;;15.07;3.70;;;7.10;99.90;;;;;;7368483;19;20022;-69
2023/12/22 07:24:10;;;;;;;15.65;3.22;;;7.10;99.90;;;;;;7377801;19;20094;-78
2023/12/22 07:26:36;;;;;;;11.82;2.78;;;7.20;99.90;;;;;;7371046;19;20789;-77
2023/12/22 07:29:03;;;;;;;17.67;3.70;;;7.10;99.90;;;;;;7376048;19;20031;-77
2023/12/22 07:31:49;;;;;;;15.35;4.15;;;7.10;99.90;;;;;;7375270;19;20018;-77
2023/12/22 07:34:16;;;;;;;18.13;3.72;;;7.00;99.90;;;;;;7375188;19;20368;-77
2023/12/22 07:36:43;;;;;;;18.85;3.22;;;7.00;99.90;;;;;;7375938;19;20572;-78
2023/12/22 07:39:10;;;;;;;14.63;3.40;;;7.10;99.90;;;;;;7375440;19;20026;-74
2023/12/22 07:41:37;;;;;;;22.65;3.67;;;7.10;99.90;;;;;;7372091;19;20042;-77
2023/12/22 07:44:03;;;;;;;17.90;3.80;;;7.00;99.90;;;;;;7369226;19;20029;-77
2023/12/22 07:46:30;;;;;;;18.83;4.20;;;7.00;99.90;;;;;;7374881;19;20082;-77
2023/12/22 07:48:57;;;;;;;13.70;3.00;;;7.10;99.90;;;;;;7371383;19;20014;-77
2023/12/22 07:51:23;;;;;;;24.77;3.92;;;7.10;99.90;;;;;;7375858;19;20104;-73
2023/12/22 07:53:49;;;;;;;19.98;3.25;;;7.10;99.90;;;;;;7357732;19;20026;-65
2023/12/22 07:56:16;;;;;;;14.40;4.57;;;7.10;99.90;;;;;;7364230;19;20357;-68
2023/12/22 07:58:42;;;;;;;20.48;4.32;;;7.10;99.90;;;;;;7367338;19;20077;-68
2023/12/22 08:01:08;;;;;;;26.98;3.53;;;7.00;99.90;;;;;;7367217;19;20025;-69
2023/12/22 08:03:35;;;;;;;15.50;4.28;;;7.10;99.90;;;;;;7365095;19;20023;-70
2023/12/22 08:06:02;;;;;;;19.95;3.63;;;7.00;99.90;;;;;;7365877;19;20086;-68
2023/12/22 08:08:28;;;;;;;16.48;3.45;;;7.10;99.90;;;;;;7368225;19;20123;-69
2023/12/22 08:10:55;;;;;;;25.27;4.25;;;7.00;99.90;;;;;;7368106;19;20022;-68
2023/12/22 08:13:21;;;;;;;16.38;3.75;;;7.00;99.90;;;;;;7371221;19;20044;-76
2023/12/22 08:15:47;;;;;;;23.08;3.80;;;7.00;99.90;;;;;;7373400;19;20495;-69
2023/12/22 08:18:14;;;;;;;20.70;4.43;;;7.00;99.90;;;;;;7366069;19;20018;-68
2023/12/22 08:20:40;;;;;;;23.98;4.28;;;7.10;99.90;;;;;;7369771;19;20015;-77
2023/12/22 08:23:06;;;;;;;21.25;4.20;;;7.00;99.90;;;;;;7370376;19;20098;-68
2023/12/22 08:25:34;;;;;;;19.88;4.45;;;7.00;99.90;;;;;;7373240;19;20037;-77
2023/12/22 08:28:01;;;;;;;18.33;4.22;;;7.10;99.90;;;;;;7372309;19;20018;-72
2023/12/22 08:30:27;;;;;;;25.63;3.70;;;7.10;99.90;;;;;;7372902;19;20532;-68
2023/12/22 08:32:53;;;;;;;15.05;3.53;;;7.10;99.90;;;;;;7379196;19;20018;-76
2023/12/22 08:35:19;;;;;;;21.60;4.30;;;7.10;99.90;;;;;;7377378;19;20010;-76
2023/12/22 08:37:46;;;;;;;16.73;5.97;;;7.00;99.90;;;;;;7373464;19;20060;-68
2023/12/22 08:40:12;;;;;;;20.38;4.43;;;7.00;99.90;;;;;;7372663;19;20025;-68
2023/12/22 08:42:39;;;;;;;20.45;3.08;;;7.10;99.90;;;;;;7383197;19;20010;-76
2023/12/22 08:45:06;;;;;;;14.90;3.17;;;7.10;99.90;;;;;;7375113;19;20010;-76
2023/12/22 08:47:33;;;;;;;11.57;2.35;;;7.10;99.90;;;;;;7374410;19;20018;-76
2023/12/22 08:50:03;;;;;;;12.65;3.13;;;7.20;99.90;;;;;;7370315;19;20018;-70
2023/12/22 08:52:30;;;;;;;8.40;2.15;;;7.20;99.90;;;;;;7365601;19;20027;-66
2023/12/22 08:54:56;;;;;;;15.73;2.40;;;7.20;99.90;;;;;;7362740;19;20022;-64
2023/12/22 08:57:42;;;;;;;11.68;1.98;;;7.20;99.90;;;;;;7367281;19;20029;-68
2023/12/22 09:00:09;;;;;;;12.63;2.10;;;7.20;99.90;;;;;;7365485;19;20019;-68
2023/12/22 09:02:35;;;;;;;10.80;1.80;;;7.20;99.90;;;;;;7365148;19;20078;-68
2023/12/22 09:05:01;;;;;;;10.02;2.15;;;7.20;99.90;;;;;;7366719;19;20023;-67
2023/12/22 09:07:48;;;;;;;6.43;1.42;;;7.20;99.90;;;;;;7370593;19;20022;-67
2023/12/22 09:10:15;;;;;;;6.90;1.40;;;7.20;99.90;;;;;;7370209;19;20040;-66
2023/12/22 09:12:42;;;;;;;5.13;1.20;;;7.20;99.90;;;;;;7370559;19;20014;-67
2023/12/22 09:15:08;;;;;;;6.22;1.48;;;7.30;99.90;;;;;;7369466;19;20022;-78
2023/12/22 09:17:37;;;;;;;6.72;1.38;;;7.50;99.90;;;;;;7374734;19;20016;-75
2023/12/22 09:20:04;;;;;;;7.40;1.38;;;7.60;99.90;;;;;;7372350;19;20052;-76
2023/12/22 09:22:30;;;;;;;5.93;1.00;;;7.80;99.90;;;;;;7373944;19;20014;-77
2023/12/22 09:24:56;;;;;;;6.60;1.13;;;7.90;99.90;;;;;;7374948;19;20585;-77
2023/12/22 09:27:22;;;;;;;7.85;1.13;;;7.90;99.90;;;;;;7369016;19;20018;-77
2023/12/22 09:29:49;;;;;;;4.97;1.15;;;7.90;99.90;;;;;;7372888;19;20022;-67
2023/12/22 09:32:15;;;;;;;5.03;1.13;;;7.80;99.90;;;;;;7367645;19;20026;-67
2023/12/22 09:34:41;;;;;;;5.95;1.38;;;7.70;99.90;;;;;;7371838;19;20026;-68
2023/12/22 09:37:07;;;;;;;6.40;1.15;;;7.70;99.90;;;;;;7368358;19;20019;-67
2023/12/22 09:39:34;;;;;;;7.07;1.88;;;7.70;99.90;;;;;;7371326;19;20083;-67
2023/12/22 09:42:00;;;;;;;6.10;0.80;;;7.60;99.90;;;;;;7371430;19;20101;-67
2023/12/22 09:44:50;;;;;;;6.90;1.48;;;7.60;99.90;;;;;;7370456;19;20018;-75
2023/12/22 09:47:18;;;;;;;7.82;1.42;;;7.60;99.90;;;;;;7371720;19;20481;-65
2023/12/22 09:49:46;;;;;;;6.22;1.38;;;7.60;99.90;;;;;;7369447;19;20019;-65
2023/12/22 09:52:13;;;;;;;5.63;1.23;;;7.60;99.90;;;;;;7368954;19;20025;-65
2023/12/22 09:54:41;;;;;;;8.50;1.73;;;7.60;99.90;;;;;;7371150;19;20019;-66
2023/12/22 09:57:08;;;;;;;5.20;1.25;;;7.60;99.90;;;;;;7368066;19;20374;-66
2023/12/22 09:59:36;;;;;;;5.68;1.60;;;7.60;99.90;;;;;;7372039;19;20789;-67
2023/12/22 10:02:26;;;;;;;5.25;1.25;;;7.50;99.90;;;;;;7368558;19;20044;-66
2023/12/22 10:04:52;;;;;;;7.22;2.20;;;7.50;99.90;;;;;;7369555;19;20019;-66
2023/12/22 10:07:20;;;;;;;8.98;1.90;;;7.50;99.90;;;;;;7368322;19;20014;-65
2023/12/22 10:09:49;;;;;;;12.18;1.85;;;7.50;99.90;;;;;;7371346;19;20078;-76
2023/12/22 10:12:18;;;;;;;12.77;1.70;;;7.50;99.90;;;;;;7373262;19;20019;-76
2023/12/22 10:14:45;;;;;;;8.02;1.80;;;7.50;99.90;;;;;;7370596;19;20022;-76
2023/12/22 10:17:31;;;;;;;11.48;2.88;;;7.40;99.90;;;;;;7368157;19;20018;-76
2023/12/22 10:19:58;;;;;;;10.68;2.05;;;7.50;99.90;;;;;;7378106;19;20644;-65
2023/12/22 10:22:24;;;;;;;15.02;2.38;;;7.40;99.90;;;;;;7372156;19;20018;-73
2023/12/22 10:24:53;;;;;;;11.10;2.25;;;7.40;99.90;;;;;;7379666;19;20014;-75
2023/12/22 10:27:22;;;;;;;9.30;2.22;;;7.40;99.90;;;;;;7373212;19;20014;-75
2023/12/22 10:29:49;;;;;;;9.23;2.28;;;7.40;99.90;;;;;;7378451;19;20033;-75
2023/12/22 10:32:16;;;;;;;9.63;2.17;;;7.40;99.90;;;;;;7378274;19;20763;-72
2023/12/22 10:34:43;;;;;;;13.15;2.88;;;7.40;99.90;;;;;;7379106;19;20022;-75
2023/12/22 10:37:10;;;;;;;11.90;2.20;;;7.30;99.90;;;;;;7374488;19;20026;-68
2023/12/22 10:39:56;;;;;;;12.23;2.15;;;7.30;99.90;;;;;;7375904;19;20122;-65
2023/12/22 10:42:22;;;;;;;10.27;2.65;;;7.30;99.90;;;;;;7374351;19;20025;-65
2023/12/22 10:44:49;;;;;;;17.50;3.80;;;7.20;99.90;;;;;;7374660;19;20980;-66
2023/12/22 10:47:17;;;;;;;13.20;2.15;;;7.20;99.90;;;;;;7376675;19;20018;-65
2023/12/22 10:49:46;;;;;;;12.90;2.33;;;7.20;99.90;;;;;;7376895;19;20014;-65
2023/12/22 10:52:17;;;;;;;12.30;2.47;;;7.20;99.90;;;;;;7378785;19;20018;-65
2023/12/22 10:54:44;;;;;;;10.87;2.03;;;7.20;99.90;;;;;;7374589;19;20010;-66
2023/12/22 10:57:11;;;;;;;12.80;2.63;;;7.20;99.90;;;;;;7378025;19;20274;-66
2023/12/22 10:59:46;;;;;;;11.20;2.05;;;7.20;99.90;;;;;;7377515;19;20394;-67
2023/12/22 11:02:19;;;;;;;8.00;1.73;;;7.20;99.90;;;;;;7373173;19;20035;-67
2023/12/22 11:05:08;;;;;;;8.73;1.90;;;7.20;99.90;;;;;;7377481;19;20030;-66
2023/12/22 11:07:35;;;;;;;9.15;1.70;;;7.20;99.90;;;;;;7373172;19;20022;-66
2023/12/22 11:10:06;;;;;;;9.32;2.13;;;7.30;99.90;;;;;;7376142;19;20736;-66
2023/12/22 11:12:36;;;;;;;11.52;1.95;;;7.30;99.90;;;;;;7375469;19;20019;-66
2023/12/22 11:15:05;;;;;;;9.85;1.70;;;7.40;99.90;;;;;;7376123;19;20090;-66
2023/12/22 11:17:36;;;;;;;7.57;1.63;;;7.40;99.90;;;;;;7373727;19;20019;-74
2023/12/22 11:20:03;;;;;;;5.50;1.30;;;7.40;99.90;;;;;;7376119;19;20655;-73
2023/12/22 11:22:32;;;;;;;7.13;1.67;;;7.40;99.90;;;;;;7373961;19;20110;-72
2023/12/22 11:25:00;;;;;;;8.93;1.88;;;7.50;99.90;;;;;;7380001;19;20393;-66
2023/12/22 11:27:28;;;;;;;7.00;1.50;;;7.50;99.90;;;;;;7370990;19;20002;-66
2023/12/22 11:29:55;;;;;;;12.13;1.63;;;7.50;99.90;;;;;;7373193;19;20063;-66
2023/12/22 11:32:21;;;;;;;6.43;1.42;;;7.60;99.90;;;;;;7375165;19;20026;-66
2023/12/22 11:34:48;;;;;;;4.80;1.63;;;7.60;99.90;;;;;;7375782;19;20022;-66
2023/12/22 11:37:16;;;;;;;6.43;1.30;;;7.60;99.90;;;;;;7372905;19;20359;-66
2023/12/22 11:39:43;;;;;;;7.72;1.38;;;7.60;99.90;;;;;;7373765;19;20010;-66
2023/12/22 11:42:14;;;;;;;6.22;1.35;;;7.60;99.90;;;;;;7373019;19;20019;-66
2023/12/22 11:44:41;;;;;;;10.00;1.77;;;7.60;99.90;;;;;;7374714;19;20011;-66
2023/12/22 11:47:09;;;;;;;8.05;1.50;;;7.60;99.90;;;;;;7375548;19;20021;-73
2023/12/22 11:49:37;;;;;;;7.85;1.38;;;7.70;99.90;;;;;;7375678;19;20039;-74
2023/12/22 11:52:17;;;;;;;6.35;1.48;;;7.70;99.90;;;;;;7375728;19;20430;-74
2023/12/22 11:54:49;;;;;;;9.65;2.20;;;7.70;99.90;;;;;;7375258;19;20014;-74
2023/12/22 11:57:27;;;;;;;11.15;1.65;;;7.70;99.90;;;;;;7375929;19;20028;-74
2023/12/22 11:59:58;;;;;;;6.03;1.40;;;7.70;99.90;;;;;;7376830;19;20018;-73
2023/12/22 12:02:25;;;;;;;5.70;1.50;;;7.80;99.90;;;;;;7370898;19;20482;-66
2023/12/22 12:04:52;;;;;;;6.13;1.70;;;7.70;99.90;;;;;;7376072;19;20019;-74
2023/12/22 12:07:44;;;;;;;6.80;1.65;;;7.70;99.90;;;;;;7372559;19;20026;-69
2023/12/22 12:10:21;;;;;;;7.15;1.60;;;7.70;99.90;;;;;;7371359;19;20405;-66
2023/12/22 12:13:03;;;;;;;10.18;1.50;;;7.70;99.90;;;;;;7376146;19;20356;-65
2023/12/22 12:15:34;;;;;;;8.20;1.50;;;7.60;99.90;;;;;;7372407;19;20056;-66
2023/12/22 12:18:01;;;;;;;7.45;1.25;;;7.70;99.90;;;;;;7371479;19;20014;-74
2023/12/22 12:20:28;;;;;;;9.68;1.73;;;7.60;99.90;;;;;;7370568;19;20094;-72
2023/12/22 12:22:55;;;;;;;12.32;1.92;;;7.70;99.90;;;;;;7360745;19;20018;-73
2023/12/22 12:25:29;;;;;;;9.00;2.03;;;7.70;99.90;;;;;;7367193;19;20133;-73
2023/12/22 12:28:08;;;;;;;9.73;1.77;;;7.70;99.90;;;;;;7370794;19;20019;-73
2023/12/22 12:30:37;;;;;;;8.05;2.17;;;7.70;99.90;;;;;;7375848;19;20074;-73
2023/12/22 12:33:07;;;;;;;15.18;2.45;;;7.70;99.90;;;;;;7367352;19;20383;-73
2023/12/22 12:35:35;;;;;;;9.93;1.60;;;7.70;99.90;;;;;;7371887;19;20568;-73
2023/12/22 12:38:03;;;;;;;9.10;1.60;;;7.70;99.90;;;;;;7369073;19;20026;-73
2023/12/22 12:40:30;;;;;;;7.22;1.83;;;7.70;99.90;;;;;;7371820;19;20102;-73
2023/12/22 12:42:57;;;;;;;11.80;2.72;;;7.70;99.90;;;;;;7367498;19;20042;-66
2023/12/22 12:45:23;;;;;;;9.85;1.85;;;7.70;99.90;;;;;;7368949;19;20757;-65
2023/12/22 12:48:03;;;;;;;10.45;2.42;;;7.80;99.90;;;;;;7367722;19;20027;-65
2023/12/22 12:50:31;;;;;;;8.38;1.92;;;7.70;99.90;;;;;;7370623;19;20090;-64
2023/12/22 12:52:57;;;;;;;7.88;1.80;;;7.70;99.90;;;;;;7369491;19;20033;-65